sensor_id;sensor_type;location;lat;lon;timestamp;temperature;humidity
24814;DHT22;12904;50.088;11.414;2023-03-01T00:02:02;-0.90;99.90
24814;DHT22;12904;50.088;11.414;2023-03-01T00:04:30;-0.90;99.90
24814;DHT22;12904;50.088;11.414;2023-03-01T00:06:55;-1.00;99.90
24814;DHT22;12904;50.088;11.414;2023-03-01T00:09:21;-1.00;99.90
24814;DHT22;12904;50.088;11.414;2023-03-01T00:11:48;-1.20;99.90
24814;DHT22;12904;50.088;11.414;2023-03-01T00:14:14;-1.30;99.90
24814;DHT22;12904;50.088;11.414;2023-03-01T00:16:43;-1.50;99.90
24814;DHT22;12904;50.088;11.414;2023-03-01T00:19:18;-1.60;99.90
24814;DHT22;12904;50.088;11.414;2023-03-01T00:21:44;-1.70;99.90
24814;DHT22;12904;50.088;11.414;2023-03-01T00:24:10;-1.80;99.90
24814;DHT22;12904;50.088;11.414;2023-03-01T00:26:36;-1.90;99.90
24814;DHT22;12904;50.088;11.414;2023-03-01T00:29:02;-1.90;99.90
24814;DHT22;12904;50.088;11.414;2023-03-01T00:31:31;-1.90;99.90
24814;DHT22;12904;50.088;11.414;2023-03-01T00:33:59;-2.00;99.90
24814;DHT22;12904;50.088;11.414;2023-03-01T00:36:26;-2.00;99.90
24814;DHT22;12904;50.088;11.414;2023-03-01T00:38:53;-2.00;99.90
24814;DHT22;12904;50.088;11.414;2023-03-01T00:41:20;-2.00;99.90
24814;DHT22;12904;50.088;11.414;2023-03-01T00:43:45;-2.00;99.90
24814;DHT22;12904;50.088;11.414;2023-03-01T00:46:14;-2.00;99.90
24814;DHT22;12904;50.088;11.414;2023-03-01T00:48:41;-2.00;99.90
24814;DHT22;12904;50.088;11.414;2023-03-01T00:54:04;-2.00;99.90
24814;DHT22;12904;50.088;11.414;2023-03-01T00:56:30;-1.90;99.90
24814;DHT22;12904;50.088;11.414;2023-03-01T00:58:56;-1.90;99.90
24814;DHT22;12904;50.088;11.414;2023-03-01T01:01:24;-2.00;99.90
24814;DHT22;12904;50.088;11.414;2023-03-01T01:04:04;-2.00;99.90
24814;DHT22;12904;50.088;11.414;2023-03-01T01:06:37;-2.00;99.90
24814;DHT22;12904;50.088;11.414;2023-03-01T01:09:04;-2.00;99.90
24814;DHT22;12904;50.088;11.414;2023-03-01T01:11:30;-2.10;99.90
24814;DHT22;12904;50.088;11.414;2023-03-01T01:13:57;-2.10;99.90
24814;DHT22;12904;50.088;11.414;2023-03-01T01:16:24;-2.20;99.90
24814;DHT22;12904;50.088;11.414;2023-03-01T01:18:51;-2.20;99.90
24814;DHT22;12904;50.088;11.414;2023-03-01T01:21:22;-2.30;99.90
24814;DHT22;12904;50.088;11.414;2023-03-01T01:23:48;-2.30;99.90
24814;DHT22;12904;50.088;11.414;2023-03-01T01:26:18;-2.30;99.90
24814;DHT22;12904;50.088;11.414;2023-03-01T01:28:44;-2.30;99.90
24814;DHT22;12904;50.088;11.414;2023-03-01T01:31:10;-2.30;99.90
24814;DHT22;12904;50.088;11.414;2023-03-01T01:33:35;-2.30;99.90
24814;DHT22;12904;50.088;11.414;2023-03-01T01:36:03;-2.40;99.90
24814;DHT22;12904;50.088;11.414;2023-03-01T01:38:29;-2.40;99.90
24814;DHT22;12904;50.088;11.414;2023-03-01T01:40:55;-2.40;99.90
24814;DHT22;12904;50.088;11.414;2023-03-01T01:45:46;-2.40;99.90
24814;DHT22;12904;50.088;11.414;2023-03-01T01:48:17;-2.40;99.90
24814;DHT22;12904;50.088;11.414;2023-03-01T01:50:44;-2.30;99.90
24814;DHT22;12904;50.088;11.414;2023-03-01T01:53:14;-2.10;99.90
24814;DHT22;12904;50.088;11.414;2023-03-01T01:55:47;-2.00;99.90
24814;DHT22;12904;50.088;11.414;2023-03-01T01:58:16;-1.90;99.90
24814;DHT22;12904;50.088;11.414;2023-03-01T02:00:43;-1.80;99.90
24814;DHT22;12904;50.088;11.414;2023-03-01T02:03:14;-1.70;99.90
24814;DHT22;12904;50.088;11.414;2023-03-01T02:08:30;-1.60;99.90
24814;DHT22;12904;50.088;11.414;2023-03-01T02:10:58;-1.50;99.90
24814;DHT22;12904;50.088;11.414;2023-03-01T02:13:30;-1.40;99.90
24814;DHT22;12904;50.088;11.414;2023-03-01T02:15:56;-1.30;99.90
24814;DHT22;12904;50.088;11.414;2023-03-01T02:18:23;-1.20;99.90
24814;DHT22;12904;50.088;11.414;2023-03-01T02:23:15;-1.30;99.90
24814;DHT22;12904;50.088;11.414;2023-03-01T02:25:51;-1.30;99.90
24814;DHT22;12904;50.088;11.414;2023-03-01T02:30:48;-1.50;99.90
24814;DHT22;12904;50.088;11.414;2023-03-01T02:33:35;-1.60;99.90
24814;DHT22;12904;50.088;11.414;2023-03-01T02:36:15;-1.70;99.90
24814;DHT22;12904;50.088;11.414;2023-03-01T02:38:43;-1.90;99.90
24814;DHT22;12904;50.088;11.414;2023-03-01T02:41:11;-2.00;99.90
24814;DHT22;12904;50.088;11.414;2023-03-01T02:43:38;-2.00;99.90
24814;DHT22;12904;50.088;11.414;2023-03-01T02:46:16;-2.10;99.90
24814;DHT22;12904;50.088;11.414;2023-03-01T02:48:46;-2.20;99.90
24814;DHT22;12904;50.088;11.414;2023-03-01T02:54:13;-2.30;99.90
24814;DHT22;12904;50.088;11.414;2023-03-01T02:56:41;-2.40;99.90
24814;DHT22;12904;50.088;11.414;2023-03-01T02:59:08;-2.40;99.90
24814;DHT22;12904;50.088;11.414;2023-03-01T03:01:34;-2.40;99.90
24814;DHT22;12904;50.088;11.414;2023-03-01T03:04:07;-2.40;99.90
24814;DHT22;12904;50.088;11.414;2023-03-01T03:06:35;-2.50;99.90
24814;DHT22;12904;50.088;11.414;2023-03-01T03:09:02;-2.50;99.90
24814;DHT22;12904;50.088;11.414;2023-03-01T03:11:28;-2.50;99.90
24814;DHT22;12904;50.088;11.414;2023-03-01T03:13:55;-2.60;99.90
24814;DHT22;12904;50.088;11.414;2023-03-01T03:16:21;-2.60;99.90
24814;DHT22;12904;50.088;11.414;2023-03-01T03:18:47;-2.60;99.90
24814;DHT22;12904;50.088;11.414;2023-03-01T03:21:14;-2.70;99.90
24814;DHT22;12904;50.088;11.414;2023-03-01T03:23:40;-2.70;99.90
24814;DHT22;12904;50.088;11.414;2023-03-01T03:26:06;-2.80;99.90
24814;DHT22;12904;50.088;11.414;2023-03-01T03:28:32;-2.80;99.90
24814;DHT22;12904;50.088;11.414;2023-03-01T03:30:58;-2.70;99.90
24814;DHT22;12904;50.088;11.414;2023-03-01T03:33:29;-2.70;99.90
24814;DHT22;12904;50.088;11.414;2023-03-01T03:35:55;-2.70;99.90
24814;DHT22;12904;50.088;11.414;2023-03-01T03:38:21;-2.70;99.90
24814;DHT22;12904;50.088;11.414;2023-03-01T03:41:00;-2.80;99.90
24814;DHT22;12904;50.088;11.414;2023-03-01T03:43:28;-2.90;99.90
24814;DHT22;12904;50.088;11.414;2023-03-01T03:45:54;-2.90;99.90
24814;DHT22;12904;50.088;11.414;2023-03-01T03:48:22;-3.00;99.90
24814;DHT22;12904;50.088;11.414;2023-03-01T03:50:51;-3.10;99.90
24814;DHT22;12904;50.088;11.414;2023-03-01T03:53:17;-3.10;99.90
24814;DHT22;12904;50.088;11.414;2023-03-01T03:55:43;-3.10;99.90
24814;DHT22;12904;50.088;11.414;2023-03-01T03:58:10;-3.10;99.90
24814;DHT22;12904;50.088;11.414;2023-03-01T04:00:38;-3.10;99.90
24814;DHT22;12904;50.088;11.414;2023-03-01T04:03:04;-3.20;99.90
24814;DHT22;12904;50.088;11.414;2023-03-01T04:05:30;-3.20;99.90
24814;DHT22;12904;50.088;11.414;2023-03-01T04:07:57;-3.20;99.90
24814;DHT22;12904;50.088;11.414;2023-03-01T04:10:38;-3.20;99.90
24814;DHT22;12904;50.088;11.414;2023-03-01T04:13:05;-3.20;99.90
24814;DHT22;12904;50.088;11.414;2023-03-01T04:15:32;-3.20;99.90
24814;DHT22;12904;50.088;11.414;2023-03-01T04:17:59;-3.20;99.90
24814;DHT22;12904;50.088;11.414;2023-03-01T04:20:28;-3.20;99.90
24814;DHT22;12904;50.088;11.414;2023-03-01T04:22:59;-3.20;99.90
24814;DHT22;12904;50.088;11.414;2023-03-01T04:25:37;-3.10;99.90
24814;DHT22;12904;50.088;11.414;2023-03-01T04:28:03;-3.10;99.90
24814;DHT22;12904;50.088;11.414;2023-03-01T04:30:28;-3.10;99.90
24814;DHT22;12904;50.088;11.414;2023-03-01T04:32:54;-3.20;99.90
24814;DHT22;12904;50.088;11.414;2023-03-01T04:35:19;-3.30;99.90
24814;DHT22;12904;50.088;11.414;2023-03-01T04:37:46;-3.30;99.90
24814;DHT22;12904;50.088;11.414;2023-03-01T04:40:11;-3.30;99.90
24814;DHT22;12904;50.088;11.414;2023-03-01T04:42:42;-3.30;99.90
24814;DHT22;12904;50.088;11.414;2023-03-01T04:45:08;-3.30;99.90
24814;DHT22;12904;50.088;11.414;2023-03-01T04:47:42;-3.30;99.90
24814;DHT22;12904;50.088;11.414;2023-03-01T04:50:10;-3.30;99.90
24814;DHT22;12904;50.088;11.414;2023-03-01T04:52:36;-3.30;99.90
24814;DHT22;12904;50.088;11.414;2023-03-01T04:55:02;-3.40;99.90
24814;DHT22;12904;50.088;11.414;2023-03-01T04:57:29;-3.40;99.90
24814;DHT22;12904;50.088;11.414;2023-03-01T04:59:55;-3.50;99.90
24814;DHT22;12904;50.088;11.414;2023-03-01T05:02:20;-3.50;99.90
24814;DHT22;12904;50.088;11.414;2023-03-01T05:04:46;-3.50;99.90
24814;DHT22;12904;50.088;11.414;2023-03-01T05:07:11;-3.60;99.90
24814;DHT22;12904;50.088;11.414;2023-03-01T05:09:38;-3.60;99.90
24814;DHT22;12904;50.088;11.414;2023-03-01T05:12:04;-3.50;99.90
24814;DHT22;12904;50.088;11.414;2023-03-01T05:14:30;-3.50;99.90
24814;DHT22;12904;50.088;11.414;2023-03-01T05:16:55;-3.50;99.90
24814;DHT22;12904;50.088;11.414;2023-03-01T05:19:29;-3.50;99.90
24814;DHT22;12904;50.088;11.414;2023-03-01T05:21:56;-3.30;99.90
24814;DHT22;12904;50.088;11.414;2023-03-01T05:24:34;-3.20;99.90
24814;DHT22;12904;50.088;11.414;2023-03-01T05:27:00;-3.20;99.90
24814;DHT22;12904;50.088;11.414;2023-03-01T05:29:28;-3.20;99.90
24814;DHT22;12904;50.088;11.414;2023-03-01T05:31:55;-3.20;99.90
24814;DHT22;12904;50.088;11.414;2023-03-01T05:34:25;-3.20;99.90
24814;DHT22;12904;50.088;11.414;2023-03-01T05:36:51;-3.00;99.90
24814;DHT22;12904;50.088;11.414;2023-03-01T05:39:19;-2.80;99.90
24814;DHT22;12904;50.088;11.414;2023-03-01T05:41:46;-2.70;99.90
24814;DHT22;12904;50.088;11.414;2023-03-01T05:44:12;-2.60;99.90
24814;DHT22;12904;50.088;11.414;2023-03-01T05:46:38;-2.40;99.90
24814;DHT22;12904;50.088;11.414;2023-03-01T05:49:03;-2.20;99.90
24814;DHT22;12904;50.088;11.414;2023-03-01T05:51:29;-2.20;99.90
24814;DHT22;12904;50.088;11.414;2023-03-01T05:53:55;-2.20;99.90
24814;DHT22;12904;50.088;11.414;2023-03-01T05:56:21;-2.10;99.90
24814;DHT22;12904;50.088;11.414;2023-03-01T05:58:48;-2.10;99.90
24814;DHT22;12904;50.088;11.414;2023-03-01T06:01:15;-2.00;99.90
24814;DHT22;12904;50.088;11.414;2023-03-01T06:03:40;-2.00;99.90
24814;DHT22;12904;50.088;11.414;2023-03-01T06:06:06;-2.00;99.90
24814;DHT22;12904;50.088;11.414;2023-03-01T06:08:32;-2.00;99.90
24814;DHT22;12904;50.088;11.414;2023-03-01T06:10:57;-1.90;99.90
24814;DHT22;12904;50.088;11.414;2023-03-01T06:13:23;-1.90;99.90
24814;DHT22;12904;50.088;11.414;2023-03-01T06:15:49;-1.80;99.90
24814;DHT22;12904;50.088;11.414;2023-03-01T06:18:15;-1.70;99.90
24814;DHT22;12904;50.088;11.414;2023-03-01T06:20:41;-1.70;99.90
24814;DHT22;12904;50.088;11.414;2023-03-01T06:23:06;-1.70;99.90
24814;DHT22;12904;50.088;11.414;2023-03-01T06:25:32;-1.70;99.90
24814;DHT22;12904;50.088;11.414;2023-03-01T06:27:58;-1.60;99.90
24814;DHT22;12904;50.088;11.414;2023-03-01T06:30:25;-1.60;99.90
24814;DHT22;12904;50.088;11.414;2023-03-01T06:32:51;-1.50;99.90
24814;DHT22;12904;50.088;11.414;2023-03-01T06:35:17;-1.50;99.90
24814;DHT22;12904;50.088;11.414;2023-03-01T06:37:44;-1.50;99.90
24814;DHT22;12904;50.088;11.414;2023-03-01T06:40:11;-1.40;99.90
24814;DHT22;12904;50.088;11.414;2023-03-01T06:42:38;-1.40;99.90
24814;DHT22;12904;50.088;11.414;2023-03-01T06:45:05;-1.30;99.90
24814;DHT22;12904;50.088;11.414;2023-03-01T06:47:32;-1.30;99.90
24814;DHT22;12904;50.088;11.414;2023-03-01T06:50:01;-1.20;99.90
24814;DHT22;12904;50.088;11.414;2023-03-01T06:52:28;-1.20;99.90
24814;DHT22;12904;50.088;11.414;2023-03-01T06:54:53;-1.20;99.90
24814;DHT22;12904;50.088;11.414;2023-03-01T06:57:19;-1.10;99.90
24814;DHT22;12904;50.088;11.414;2023-03-01T06:59:46;-1.00;99.90
24814;DHT22;12904;50.088;11.414;2023-03-01T07:02:12;-0.90;99.90
24814;DHT22;12904;50.088;11.414;2023-03-01T07:04:38;-0.90;99.90
24814;DHT22;12904;50.088;11.414;2023-03-01T07:07:04;-0.90;99.90
24814;DHT22;12904;50.088;11.414;2023-03-01T07:09:29;-0.80;99.90
24814;DHT22;12904;50.088;11.414;2023-03-01T07:11:56;-0.80;99.90
24814;DHT22;12904;50.088;11.414;2023-03-01T07:14:22;-0.80;99.90
24814;DHT22;12904;50.088;11.414;2023-03-01T07:16:50;-0.80;99.90
24814;DHT22;12904;50.088;11.414;2023-03-01T07:19:15;-0.70;99.90
24814;DHT22;12904;50.088;11.414;2023-03-01T07:21:41;-0.70;99.90
24814;DHT22;12904;50.088;11.414;2023-03-01T07:24:08;-0.60;99.90
24814;DHT22;12904;50.088;11.414;2023-03-01T07:26:34;-0.60;99.90
24814;DHT22;12904;50.088;11.414;2023-03-01T07:29:01;-0.50;99.90
24814;DHT22;12904;50.088;11.414;2023-03-01T07:31:26;-0.50;99.90
24814;DHT22;12904;50.088;11.414;2023-03-01T07:33:54;-0.50;99.90
24814;DHT22;12904;50.088;11.414;2023-03-01T07:36:19;-0.50;99.90
24814;DHT22;12904;50.088;11.414;2023-03-01T07:38:45;-0.40;99.90
24814;DHT22;12904;50.088;11.414;2023-03-01T07:41:11;-0.40;99.90
24814;DHT22;12904;50.088;11.414;2023-03-01T07:43:36;-0.30;99.90
24814;DHT22;12904;50.088;11.414;2023-03-01T07:46:02;-0.20;99.90
24814;DHT22;12904;50.088;11.414;2023-03-01T07:48:30;-0.10;99.90
24814;DHT22;12904;50.088;11.414;2023-03-01T07:51:00;-0.10;99.90
24814;DHT22;12904;50.088;11.414;2023-03-01T07:53:26;0.00;99.90
24814;DHT22;12904;50.088;11.414;2023-03-01T07:56:10;0.10;99.90
24814;DHT22;12904;50.088;11.414;2023-03-01T07:58:37;0.20;99.90
24814;DHT22;12904;50.088;11.414;2023-03-01T08:01:08;0.20;99.90
24814;DHT22;12904;50.088;11.414;2023-03-01T08:03:35;0.30;99.90
24814;DHT22;12904;50.088;11.414;2023-03-01T08:06:02;0.40;99.90
24814;DHT22;12904;50.088;11.414;2023-03-01T08:08:28;0.50;99.90
24814;DHT22;12904;50.088;11.414;2023-03-01T08:10:57;0.60;99.90
24814;DHT22;12904;50.088;11.414;2023-03-01T08:13:23;0.60;99.90
24814;DHT22;12904;50.088;11.414;2023-03-01T08:15:49;0.70;99.90
24814;DHT22;12904;50.088;11.414;2023-03-01T08:18:15;0.70;99.90
24814;DHT22;12904;50.088;11.414;2023-03-01T08:20:41;0.80;99.90
24814;DHT22;12904;50.088;11.414;2023-03-01T08:23:07;0.80;99.30
24814;DHT22;12904;50.088;11.414;2023-03-01T08:25:32;0.90;99.70
24814;DHT22;12904;50.088;11.414;2023-03-01T08:27:58;1.00;98.40
24814;DHT22;12904;50.088;11.414;2023-03-01T08:30:23;1.10;98.00
24814;DHT22;12904;50.088;11.414;2023-03-01T08:32:49;1.20;97.70
24814;DHT22;12904;50.088;11.414;2023-03-01T08:35:16;1.30;97.20
24814;DHT22;12904;50.088;11.414;2023-03-01T08:37:41;1.40;96.50
24814;DHT22;12904;50.088;11.414;2023-03-01T08:40:07;1.50;97.50
24814;DHT22;12904;50.088;11.414;2023-03-01T08:42:36;1.50;97.10
24814;DHT22;12904;50.088;11.414;2023-03-01T08:45:05;1.70;96.30
24814;DHT22;12904;50.088;11.414;2023-03-01T08:47:31;1.70;95.80
24814;DHT22;12904;50.088;11.414;2023-03-01T08:49:57;1.80;95.70
24814;DHT22;12904;50.088;11.414;2023-03-01T08:52:22;1.90;95.40
24814;DHT22;12904;50.088;11.414;2023-03-01T08:54:49;2.00;95.20
24814;DHT22;12904;50.088;11.414;2023-03-01T08:57:15;2.00;94.60
24814;DHT22;12904;50.088;11.414;2023-03-01T08:59:41;2.10;93.80
24814;DHT22;12904;50.088;11.414;2023-03-01T09:02:12;2.10;93.80
24814;DHT22;12904;50.088;11.414;2023-03-01T09:04:39;2.20;94.20
24814;DHT22;12904;50.088;11.414;2023-03-01T09:07:04;2.20;93.70
24814;DHT22;12904;50.088;11.414;2023-03-01T09:09:30;2.30;93.90
24814;DHT22;12904;50.088;11.414;2023-03-01T09:11:56;2.40;94.00
24814;DHT22;12904;50.088;11.414;2023-03-01T09:14:21;2.50;93.50
24814;DHT22;12904;50.088;11.414;2023-03-01T09:16:47;2.60;92.90
24814;DHT22;12904;50.088;11.414;2023-03-01T09:19:13;2.70;92.60
24814;DHT22;12904;50.088;11.414;2023-03-01T09:21:39;2.90;92.80
24814;DHT22;12904;50.088;11.414;2023-03-01T09:24:05;3.30;92.40
24814;DHT22;12904;50.088;11.414;2023-03-01T09:26:31;4.00;90.80
24814;DHT22;12904;50.088;11.414;2023-03-01T09:28:57;5.30;87.00
24814;DHT22;12904;50.088;11.414;2023-03-01T09:31:24;6.70;79.70
24814;DHT22;12904;50.088;11.414;2023-03-01T09:33:52;7.60;74.50
24814;DHT22;12904;50.088;11.414;2023-03-01T09:36:22;8.60;69.80
24814;DHT22;12904;50.088;11.414;2023-03-01T09:38:48;9.00;66.90
24814;DHT22;12904;50.088;11.414;2023-03-01T09:43:51;9.50;62.90
24814;DHT22;12904;50.088;11.414;2023-03-01T09:46:23;9.80;62.50
24814;DHT22;12904;50.088;11.414;2023-03-01T09:49:02;10.00;60.20
24814;DHT22;12904;50.088;11.414;2023-03-01T09:51:34;10.20;60.30
24814;DHT22;12904;50.088;11.414;2023-03-01T09:54:04;10.40;58.80
24814;DHT22;12904;50.088;11.414;2023-03-01T09:56:37;10.20;59.70
24814;DHT22;12904;50.088;11.414;2023-03-01T10:02:11;10.10;59.10
24814;DHT22;12904;50.088;11.414;2023-03-01T10:09:44;10.20;59.00
24814;DHT22;12904;50.088;11.414;2023-03-01T10:12:15;10.20;59.00
24814;DHT22;12904;50.088;11.414;2023-03-01T10:14:50;10.20;59.10
24814;DHT22;12904;50.088;11.414;2023-03-01T10:17:33;10.30;58.70
24814;DHT22;12904;50.088;11.414;2023-03-01T10:20:21;10.30;58.60
24814;DHT22;12904;50.088;11.414;2023-03-01T10:22:48;10.40;58.90
24814;DHT22;12904;50.088;11.414;2023-03-01T10:25:48;10.20;58.50
24814;DHT22;12904;50.088;11.414;2023-03-01T10:28:43;10.00;59.40
24814;DHT22;12904;50.088;11.414;2023-03-01T10:31:15;10.40;58.50
24814;DHT22;12904;50.088;11.414;2023-03-01T10:33:42;10.70;57.70
24814;DHT22;12904;50.088;11.414;2023-03-01T10:36:08;10.90;57.20
24814;DHT22;12904;50.088;11.414;2023-03-01T10:38:52;10.90;56.40
24814;DHT22;12904;50.088;11.414;2023-03-01T10:41:20;11.20;58.80
24814;DHT22;12904;50.088;11.414;2023-03-01T10:43:57;11.60;56.60
24814;DHT22;12904;50.088;11.414;2023-03-01T10:46:28;11.90;55.80
24814;DHT22;12904;50.088;11.414;2023-03-01T10:49:14;12.10;56.20
24814;DHT22;12904;50.088;11.414;2023-03-01T10:51:42;12.60;53.90
24814;DHT22;12904;50.088;11.414;2023-03-01T10:54:26;12.70;53.60
24814;DHT22;12904;50.088;11.414;2023-03-01T10:57:01;12.70;53.30
24814;DHT22;12904;50.088;11.414;2023-03-01T11:02:21;13.00;51.80
24814;DHT22;12904;50.088;11.414;2023-03-01T11:07:58;13.00;55.50
24814;DHT22;12904;50.088;11.414;2023-03-01T11:10:28;12.70;52.20
24814;DHT22;12904;50.088;11.414;2023-03-01T11:13:14;12.10;53.00
24814;DHT22;12904;50.088;11.414;2023-03-01T11:15:41;11.60;53.70
24814;DHT22;12904;50.088;11.414;2023-03-01T11:18:21;11.20;55.80
24814;DHT22;12904;50.088;11.414;2023-03-01T11:20:49;10.90;56.70
24814;DHT22;12904;50.088;11.414;2023-03-01T11:23:17;10.80;56.50
24814;DHT22;12904;50.088;11.414;2023-03-01T11:25:58;10.50;57.10
24814;DHT22;12904;50.088;11.414;2023-03-01T11:28:24;10.40;59.50
24814;DHT22;12904;50.088;11.414;2023-03-01T11:30:59;10.50;58.70
24814;DHT22;12904;50.088;11.414;2023-03-01T11:36:40;10.20;59.50
24814;DHT22;12904;50.088;11.414;2023-03-01T11:39:37;10.30;58.20
24814;DHT22;12904;50.088;11.414;2023-03-01T11:42:18;10.30;61.10
24814;DHT22;12904;50.088;11.414;2023-03-01T11:44:48;10.40;58.10
24814;DHT22;12904;50.088;11.414;2023-03-01T11:56:03;10.20;59.90
24814;DHT22;12904;50.088;11.414;2023-03-01T11:58:50;10.10;57.50
24814;DHT22;12904;50.088;11.414;2023-03-01T12:10:06;9.80;59.20
24814;DHT22;12904;50.088;11.414;2023-03-01T12:23:53;10.30;56.30
24814;DHT22;12904;50.088;11.414;2023-03-01T12:32:07;9.80;58.80
24814;DHT22;12904;50.088;11.414;2023-03-01T12:35:19;9.60;58.40
24814;DHT22;12904;50.088;11.414;2023-03-01T12:48:21;9.20;62.40
24814;DHT22;12904;50.088;11.414;2023-03-01T12:50:53;9.30;60.70
24814;DHT22;12904;50.088;11.414;2023-03-01T12:53:29;9.30;61.50
24814;DHT22;12904;50.088;11.414;2023-03-01T12:56:01;9.30;60.20
24814;DHT22;12904;50.088;11.414;2023-03-01T13:07:13;9.30;60.60
24814;DHT22;12904;50.088;11.414;2023-03-01T13:09:51;9.40;60.20
24814;DHT22;12904;50.088;11.414;2023-03-01T13:21:00;9.60;60.90
24814;DHT22;12904;50.088;11.414;2023-03-01T13:23:30;9.60;60.80
24814;DHT22;12904;50.088;11.414;2023-03-01T13:31:01;9.50;59.80
24814;DHT22;12904;50.088;11.414;2023-03-01T13:35:54;9.30;61.90
24814;DHT22;12904;50.088;11.414;2023-03-01T13:38:48;9.40;62.70
24814;DHT22;12904;50.088;11.414;2023-03-01T13:46:51;9.40;62.80
24814;DHT22;12904;50.088;11.414;2023-03-01T13:49:20;9.40;62.30
24814;DHT22;12904;50.088;11.414;2023-03-01T13:51:51;9.40;60.90
24814;DHT22;12904;50.088;11.414;2023-03-01T13:54:31;9.40;61.40
24814;DHT22;12904;50.088;11.414;2023-03-01T13:56:59;9.40;62.30
24814;DHT22;12904;50.088;11.414;2023-03-01T13:59:25;9.40;62.20
24814;DHT22;12904;50.088;11.414;2023-03-01T14:02:00;9.40;61.80
24814;DHT22;12904;50.088;11.414;2023-03-01T14:04:31;9.50;62.00
24814;DHT22;12904;50.088;11.414;2023-03-01T14:07:29;9.60;62.20
24814;DHT22;12904;50.088;11.414;2023-03-01T14:09:58;9.80;63.50
24814;DHT22;12904;50.088;11.414;2023-03-01T14:12:51;10.00;61.60
24814;DHT22;12904;50.088;11.414;2023-03-01T14:15:28;9.90;59.50
24814;DHT22;12904;50.088;11.414;2023-03-01T14:20:32;9.60;60.50
24814;DHT22;12904;50.088;11.414;2023-03-01T14:23:02;9.50;62.10
24814;DHT22;12904;50.088;11.414;2023-03-01T14:25:35;9.50;63.40
24814;DHT22;12904;50.088;11.414;2023-03-01T14:30:50;9.60;61.30
24814;DHT22;12904;50.088;11.414;2023-03-01T14:33:26;9.40;62.10
24814;DHT22;12904;50.088;11.414;2023-03-01T14:36:06;9.30;63.20
24814;DHT22;12904;50.088;11.414;2023-03-01T14:38:46;9.10;63.50
24814;DHT22;12904;50.088;11.414;2023-03-01T14:41:17;8.90;64.00
24814;DHT22;12904;50.088;11.414;2023-03-01T14:44:07;8.80;64.50
24814;DHT22;12904;50.088;11.414;2023-03-01T14:46:41;8.80;65.00
24814;DHT22;12904;50.088;11.414;2023-03-01T14:49:19;9.00;64.90
24814;DHT22;12904;50.088;11.414;2023-03-01T14:52:04;9.10;64.70
24814;DHT22;12904;50.088;11.414;2023-03-01T14:54:41;9.10;65.50
24814;DHT22;12904;50.088;11.414;2023-03-01T14:57:20;9.30;64.50
24814;DHT22;12904;50.088;11.414;2023-03-01T14:59:53;9.20;64.10
24814;DHT22;12904;50.088;11.414;2023-03-01T15:02:23;9.20;64.90
24814;DHT22;12904;50.088;11.414;2023-03-01T15:04:57;9.20;64.90
24814;DHT22;12904;50.088;11.414;2023-03-01T15:07:28;9.20;66.10
24814;DHT22;12904;50.088;11.414;2023-03-01T15:09:55;9.30;66.10
24814;DHT22;12904;50.088;11.414;2023-03-01T15:14:53;9.30;64.90
24814;DHT22;12904;50.088;11.414;2023-03-01T15:17:32;9.20;66.10
24814;DHT22;12904;50.088;11.414;2023-03-01T15:20:03;9.00;67.20
24814;DHT22;12904;50.088;11.414;2023-03-01T15:22:29;8.50;68.40
24814;DHT22;12904;50.088;11.414;2023-03-01T15:24:55;8.10;70.00
24814;DHT22;12904;50.088;11.414;2023-03-01T15:27:23;7.90;70.90
24814;DHT22;12904;50.088;11.414;2023-03-01T15:29:58;7.60;71.80
24814;DHT22;12904;50.088;11.414;2023-03-01T15:32:33;7.50;72.10
24814;DHT22;12904;50.088;11.414;2023-03-01T15:35:01;7.40;73.00
24814;DHT22;12904;50.088;11.414;2023-03-01T15:37:49;7.40;73.50
24814;DHT22;12904;50.088;11.414;2023-03-01T15:40:26;7.40;73.20
24814;DHT22;12904;50.088;11.414;2023-03-01T15:43:04;7.40;73.10
24814;DHT22;12904;50.088;11.414;2023-03-01T15:45:31;7.40;73.70
24814;DHT22;12904;50.088;11.414;2023-03-01T15:48:19;7.40;73.90
24814;DHT22;12904;50.088;11.414;2023-03-01T15:50:54;7.30;73.70
24814;DHT22;12904;50.088;11.414;2023-03-01T15:53:21;7.20;74.50
24814;DHT22;12904;50.088;11.414;2023-03-01T15:55:47;7.20;74.80
24814;DHT22;12904;50.088;11.414;2023-03-01T15:58:21;7.20;74.60
24814;DHT22;12904;50.088;11.414;2023-03-01T16:00:47;7.10;74.30
24814;DHT22;12904;50.088;11.414;2023-03-01T16:03:15;7.00;75.80
24814;DHT22;12904;50.088;11.414;2023-03-01T16:05:47;7.00;76.10
24814;DHT22;12904;50.088;11.414;2023-03-01T16:08:13;7.10;75.80
24814;DHT22;12904;50.088;11.414;2023-03-01T16:10:40;7.20;75.30
24814;DHT22;12904;50.088;11.414;2023-03-01T16:13:09;7.20;76.00
24814;DHT22;12904;50.088;11.414;2023-03-01T16:15:35;7.20;76.10
24814;DHT22;12904;50.088;11.414;2023-03-01T16:18:02;7.10;75.90
24814;DHT22;12904;50.088;11.414;2023-03-01T16:20:28;7.00;76.10
24814;DHT22;12904;50.088;11.414;2023-03-01T16:22:55;6.80;76.00
24814;DHT22;12904;50.088;11.414;2023-03-01T16:25:23;6.60;76.60
24814;DHT22;12904;50.088;11.414;2023-03-01T16:27:50;6.50;77.80
24814;DHT22;12904;50.088;11.414;2023-03-01T16:30:19;6.40;78.00
24814;DHT22;12904;50.088;11.414;2023-03-01T16:32:46;6.30;78.80
24814;DHT22;12904;50.088;11.414;2023-03-01T16:35:13;6.10;79.30
24814;DHT22;12904;50.088;11.414;2023-03-01T16:37:39;6.00;79.30
24814;DHT22;12904;50.088;11.414;2023-03-01T16:40:09;5.80;80.00
24814;DHT22;12904;50.088;11.414;2023-03-01T16:42:40;5.60;80.80
24814;DHT22;12904;50.088;11.414;2023-03-01T16:45:07;5.40;81.50
24814;DHT22;12904;50.088;11.414;2023-03-01T16:47:34;5.20;82.20
24814;DHT22;12904;50.088;11.414;2023-03-01T16:49:59;5.00;82.80
24814;DHT22;12904;50.088;11.414;2023-03-01T16:52:25;4.90;83.60
24814;DHT22;12904;50.088;11.414;2023-03-01T16:54:51;4.70;84.30
24814;DHT22;12904;50.088;11.414;2023-03-01T16:57:17;4.60;84.60
24814;DHT22;12904;50.088;11.414;2023-03-01T16:59:42;4.60;85.60
24814;DHT22;12904;50.088;11.414;2023-03-01T17:02:12;4.50;85.20
24814;DHT22;12904;50.088;11.414;2023-03-01T17:04:41;4.40;85.40
24814;DHT22;12904;50.088;11.414;2023-03-01T17:07:07;4.20;86.20
24814;DHT22;12904;50.088;11.414;2023-03-01T17:09:36;4.10;86.70
24814;DHT22;12904;50.088;11.414;2023-03-01T17:12:05;4.00;87.70
24814;DHT22;12904;50.088;11.414;2023-03-01T17:14:31;3.90;88.00
24814;DHT22;12904;50.088;11.414;2023-03-01T17:16:57;3.90;88.40
24814;DHT22;12904;50.088;11.414;2023-03-01T17:19:22;3.80;88.40
24814;DHT22;12904;50.088;11.414;2023-03-01T17:21:48;3.80;88.70
24814;DHT22;12904;50.088;11.414;2023-03-01T17:24:14;3.80;89.30
24814;DHT22;12904;50.088;11.414;2023-03-01T17:26:40;3.80;88.90
24814;DHT22;12904;50.088;11.414;2023-03-01T17:29:05;3.80;89.20
24814;DHT22;12904;50.088;11.414;2023-03-01T17:31:32;3.70;89.30
24814;DHT22;12904;50.088;11.414;2023-03-01T17:33:58;3.60;89.80
24814;DHT22;12904;50.088;11.414;2023-03-01T17:36:24;3.60;90.10